sensor_id;sensor_type;location;lat;lon;timestamp;P1;durP1;ratioP1;P2;durP2;ratioP2
9964;SDS011;5023;53.554;9.964;2023-02-20T00:00:04;6.57;;;2.30;;
9964;SDS011;5023;53.554;9.964;2023-02-20T00:05:07;6.67;;;3.00;;
9964;SDS011;5023;53.554;9.964;2023-02-20T00:10:10;4.77;;;3.37;;
9964;SDS011;5023;53.554;9.964;2023-02-20T00:15:14;5.47;;;3.27;;
9964;SDS011;5023;53.554;9.964;2023-02-20T00:20:20;5.17;;;3.20;;
9964;SDS011;5023;53.554;9.964;2023-02-20T00:25:24;7.37;;;2.90;;
9964;SDS011;5023;53.554;9.964;2023-02-20T00:30:27;6.37;;;2.93;;
9964;SDS011;5023;53.554;9.964;2023-02-20T00:35:29;3.17;;;2.50;;
9964;SDS011;5023;53.554;9.964;2023-02-20T00:40:31;5.37;;;2.73;;
9964;SDS011;5023;53.554;9.964;2023-02-20T00:45:35;5.93;;;3.50;;
9964;SDS011;5023;53.554;9.964;2023-02-20T00:50:37;6.57;;;2.57;;
9964;SDS011;5023;53.554;9.964;2023-02-20T00:55:39;5.43;;;2.60;;
9964;SDS011;5023;53.554;9.964;2023-02-20T01:00:42;5.03;;;2.97;;
9964;SDS011;5023;53.554;9.964;2023-02-20T01:05:44;5.33;;;3.10;;
9964;SDS011;5023;53.554;9.964;2023-02-20T01:10:47;5.50;;;3.10;;
9964;SDS011;5023;53.554;9.964;2023-02-20T01:15:50;4.40;;;2.63;;
9964;SDS011;5023;53.554;9.964;2023-02-20T01:20:52;3.13;;;2.80;;
9964;SDS011;5023;53.554;9.964;2023-02-20T01:25:54;5.37;;;2.70;;
9964;SDS011;5023;53.554;9.964;2023-02-20T01:30:57;5.90;;;2.97;;
9964;SDS011;5023;53.554;9.964;2023-02-20T01:35:59;4.90;;;3.20;;
9964;SDS011;5023;53.554;9.964;2023-02-20T01:41:01;3.50;;;3.00;;
9964;SDS011;5023;53.554;9.964;2023-02-20T01:51:44;3.67;;;2.90;;
9964;SDS011;5023;53.554;9.964;2023-02-20T01:56:56;4.07;;;3.10;;
9964;SDS011;5023;53.554;9.964;2023-02-20T02:02:02;4.70;;;3.23;;
9964;SDS011;5023;53.554;9.964;2023-02-20T02:07:05;3.50;;;3.20;;
9964;SDS011;5023;53.554;9.964;2023-02-20T02:12:07;4.20;;;3.50;;
9964;SDS011;5023;53.554;9.964;2023-02-20T02:17:15;6.30;;;3.77;;
9964;SDS011;5023;53.554;9.964;2023-02-20T02:22:45;5.80;;;4.27;;
9964;SDS011;5023;53.554;9.964;2023-02-20T02:28:28;6.73;;;4.17;;
9964;SDS011;5023;53.554;9.964;2023-02-20T02:39:30;4.73;;;4.00;;
9964;SDS011;5023;53.554;9.964;2023-02-20T02:44:39;5.70;;;4.37;;
9964;SDS011;5023;53.554;9.964;2023-02-20T02:49:47;6.70;;;4.57;;
9964;SDS011;5023;53.554;9.964;2023-02-20T02:54:53;5.20;;;4.40;;
9964;SDS011;5023;53.554;9.964;2023-02-20T02:59:58;4.60;;;4.20;;
9964;SDS011;5023;53.554;9.964;2023-02-20T03:05:03;6.33;;;4.53;;
9964;SDS011;5023;53.554;9.964;2023-02-20T03:10:12;6.07;;;4.93;;
9964;SDS011;5023;53.554;9.964;2023-02-20T03:15:20;5.30;;;4.80;;
9964;SDS011;5023;53.554;9.964;2023-02-20T03:20:35;6.87;;;5.33;;
9964;SDS011;5023;53.554;9.964;2023-02-20T03:25:41;6.33;;;4.93;;
9964;SDS011;5023;53.554;9.964;2023-02-20T03:30:51;5.83;;;5.20;;
9964;SDS011;5023;53.554;9.964;2023-02-20T03:35:59;6.87;;;5.10;;
9964;SDS011;5023;53.554;9.964;2023-02-20T03:41:23;6.60;;;5.50;;
9964;SDS011;5023;53.554;9.964;2023-02-20T03:46:45;7.90;;;5.40;;
9964;SDS011;5023;53.554;9.964;2023-02-20T03:51:50;7.43;;;5.67;;
9964;SDS011;5023;53.554;9.964;2023-02-20T03:56:54;5.80;;;5.20;;
9964;SDS011;5023;53.554;9.964;2023-02-20T04:02:02;6.33;;;5.10;;
9964;SDS011;5023;53.554;9.964;2023-02-20T04:07:09;6.10;;;5.50;;
9964;SDS011;5023;53.554;9.964;2023-02-20T04:12:18;6.53;;;5.10;;
9964;SDS011;5023;53.554;9.964;2023-02-20T04:17:23;7.33;;;5.93;;
9964;SDS011;5023;53.554;9.964;2023-02-20T04:22:30;8.23;;;5.53;;
9964;SDS011;5023;53.554;9.964;2023-02-20T04:27:38;7.63;;;5.97;;
9964;SDS011;5023;53.554;9.964;2023-02-20T04:32:40;7.13;;;5.70;;
9964;SDS011;5023;53.554;9.964;2023-02-20T04:37:44;8.20;;;6.50;;
9964;SDS011;5023;53.554;9.964;2023-02-20T04:42:47;7.30;;;6.60;;
9964;SDS011;5023;53.554;9.964;2023-02-20T04:47:50;8.73;;;7.00;;
9964;SDS011;5023;53.554;9.964;2023-02-20T04:52:52;9.20;;;7.50;;
9964;SDS011;5023;53.554;9.964;2023-02-20T04:57:55;9.07;;;7.40;;
9964;SDS011;5023;53.554;9.964;2023-02-20T05:02:58;9.73;;;6.80;;
9964;SDS011;5023;53.554;9.964;2023-02-20T05:08:01;7.70;;;6.90;;
9964;SDS011;5023;53.554;9.964;2023-02-20T05:13:06;8.33;;;7.07;;
9964;SDS011;5023;53.554;9.964;2023-02-20T05:18:08;10.50;;;7.73;;
9964;SDS011;5023;53.554;9.964;2023-02-20T05:23:10;11.60;;;8.37;;
9964;SDS011;5023;53.554;9.964;2023-02-20T05:28:14;10.10;;;7.93;;
9964;SDS011;5023;53.554;9.964;2023-02-20T05:33:16;8.70;;;7.77;;
9964;SDS011;5023;53.554;9.964;2023-02-20T05:38:18;9.90;;;8.63;;
9964;SDS011;5023;53.554;9.964;2023-02-20T05:43:21;10.80;;;8.63;;
9964;SDS011;5023;53.554;9.964;2023-02-20T05:48:23;10.73;;;9.43;;
9964;SDS011;5023;53.554;9.964;2023-02-20T05:53:26;11.47;;;9.17;;
9964;SDS011;5023;53.554;9.964;2023-02-20T05:58:30;12.63;;;9.50;;
9964;SDS011;5023;53.554;9.964;2023-02-20T06:03:32;12.13;;;8.93;;
9964;SDS011;5023;53.554;9.964;2023-02-20T06:08:34;14.33;;;10.50;;
9964;SDS011;5023;53.554;9.964;2023-02-20T06:13:37;11.47;;;9.67;;
9964;SDS011;5023;53.554;9.964;2023-02-20T06:18:41;11.67;;;9.60;;
9964;SDS011;5023;53.554;9.964;2023-02-20T06:23:43;14.87;;;10.03;;
9964;SDS011;5023;53.554;9.964;2023-02-20T06:28:47;15.47;;;10.40;;
9964;SDS011;5023;53.554;9.964;2023-02-20T06:33:50;11.97;;;10.63;;
9964;SDS011;5023;53.554;9.964;2023-02-20T06:38:52;12.43;;;10.07;;
9964;SDS011;5023;53.554;9.964;2023-02-20T06:43:56;16.47;;;10.67;;
9964;SDS011;5023;53.554;9.964;2023-02-20T06:48:58;13.73;;;11.00;;
9964;SDS011;5023;53.554;9.964;2023-02-20T06:54:01;16.83;;;12.03;;
9964;SDS011;5023;53.554;9.964;2023-02-20T06:59:05;13.90;;;10.77;;
9964;SDS011;5023;53.554;9.964;2023-02-20T07:04:12;15.93;;;11.57;;
9964;SDS011;5023;53.554;9.964;2023-02-20T07:09:16;15.27;;;12.40;;
9964;SDS011;5023;53.554;9.964;2023-02-20T07:14:20;16.13;;;12.90;;
9964;SDS011;5023;53.554;9.964;2023-02-20T07:19:22;17.40;;;13.63;;
9964;SDS011;5023;53.554;9.964;2023-02-20T07:24:24;16.43;;;13.77;;
9964;SDS011;5023;53.554;9.964;2023-02-20T07:29:29;17.30;;;13.77;;
9964;SDS011;5023;53.554;9.964;2023-02-20T07:34:31;19.73;;;15.00;;
9964;SDS011;5023;53.554;9.964;2023-02-20T07:39:33;18.63;;;15.03;;
9964;SDS011;5023;53.554;9.964;2023-02-20T07:44:36;18.83;;;15.37;;
9964;SDS011;5023;53.554;9.964;2023-02-20T07:49:38;17.03;;;15.07;;
9964;SDS011;5023;53.554;9.964;2023-02-20T07:54:42;21.57;;;16.57;;
9964;SDS011;5023;53.554;9.964;2023-02-20T07:59:45;21.37;;;17.10;;
9964;SDS011;5023;53.554;9.964;2023-02-20T08:04:47;23.03;;;16.80;;
9964;SDS011;5023;53.554;9.964;2023-02-20T08:09:50;21.57;;;16.80;;
9964;SDS011;5023;53.554;9.964;2023-02-20T08:14:53;20.40;;;17.23;;
9964;SDS011;5023;53.554;9.964;2023-02-20T08:19:56;21.73;;;17.27;;
9964;SDS011;5023;53.554;9.964;2023-02-20T08:24:58;21.67;;;17.73;;
9964;SDS011;5023;53.554;9.964;2023-02-20T08:30:02;22.10;;;17.93;;
9964;SDS011;5023;53.554;9.964;2023-02-20T08:35:06;24.03;;;17.53;;
9964;SDS011;5023;53.554;9.964;2023-02-20T08:40:08;25.50;;;17.97;;
9964;SDS011;5023;53.554;9.964;2023-02-20T08:45:14;24.50;;;18.20;;
9964;SDS011;5023;53.554;9.964;2023-02-20T08:50:16;26.87;;;18.00;;
9964;SDS011;5023;53.554;9.964;2023-02-20T08:55:19;24.60;;;17.67;;
9964;SDS011;5023;53.554;9.964;2023-02-20T09:00:23;29.67;;;19.07;;
9964;SDS011;5023;53.554;9.964;2023-02-20T09:05:25;25.87;;;18.27;;
9964;SDS011;5023;53.554;9.964;2023-02-20T09:10:27;26.30;;;18.17;;
9964;SDS011;5023;53.554;9.964;2023-02-20T09:15:31;27.60;;;19.07;;
9964;SDS011;5023;53.554;9.964;2023-02-20T09:20:37;25.97;;;17.90;;
9964;SDS011;5023;53.554;9.964;2023-02-20T09:25:41;25.57;;;19.03;;
9964;SDS011;5023;53.554;9.964;2023-02-20T09:30:45;26.83;;;19.00;;
9964;SDS011;5023;53.554;9.964;2023-02-20T09:35:47;35.43;;;21.07;;
9964;SDS011;5023;53.554;9.964;2023-02-20T09:40:52;27.47;;;18.00;;
9964;SDS011;5023;53.554;9.964;2023-02-20T09:45:58;28.13;;;18.27;;
9964;SDS011;5023;53.554;9.964;2023-02-20T09:51:08;28.00;;;18.53;;
9964;SDS011;5023;53.554;9.964;2023-02-20T09:56:16;30.43;;;19.03;;
9964;SDS011;5023;53.554;9.964;2023-02-20T10:01:23;28.57;;;18.10;;
9964;SDS011;5023;53.554;9.964;2023-02-20T10:06:26;24.70;;;16.53;;
9964;SDS011;5023;53.554;9.964;2023-02-20T10:11:34;25.87;;;17.23;;
9964;SDS011;5023;53.554;9.964;2023-02-20T10:17:00;25.20;;;16.33;;
9964;SDS011;5023;53.554;9.964;2023-02-20T10:22:08;24.03;;;15.50;;
9964;SDS011;5023;53.554;9.964;2023-02-20T10:27:21;23.20;;;14.40;;
9964;SDS011;5023;53.554;9.964;2023-02-20T10:32:34;20.47;;;13.30;;
9964;SDS011;5023;53.554;9.964;2023-02-20T10:37:42;20.83;;;12.10;;
9964;SDS011;5023;53.554;9.964;2023-02-20T10:42:50;17.00;;;10.67;;
9964;SDS011;5023;53.554;9.964;2023-02-20T10:47:58;17.97;;;10.97;;
9964;SDS011;5023;53.554;9.964;2023-02-20T10:53:16;17.27;;;10.50;;
9964;SDS011;5023;53.554;9.964;2023-02-20T10:58:27;17.70;;;12.37;;
9964;SDS011;5023;53.554;9.964;2023-02-20T11:03:38;13.73;;;9.33;;
9964;SDS011;5023;53.554;9.964;2023-02-20T11:08:44;15.03;;;9.17;;
9964;SDS011;5023;53.554;9.964;2023-02-20T11:13:47;13.50;;;8.73;;
9964;SDS011;5023;53.554;9.964;2023-02-20T11:18:55;12.13;;;8.47;;
9964;SDS011;5023;53.554;9.964;2023-02-20T11:29:42;11.53;;;7.20;;
9964;SDS011;5023;53.554;9.964;2023-02-20T11:35:02;11.60;;;6.77;;
9964;SDS011;5023;53.554;9.964;2023-02-20T11:40:20;14.43;;;6.87;;
9964;SDS011;5023;53.554;9.964;2023-02-20T11:45:27;10.27;;;6.23;;
9964;SDS011;5023;53.554;9.964;2023-02-20T11:50:33;10.00;;;5.90;;
9964;SDS011;5023;53.554;9.964;2023-02-20T11:55:40;12.13;;;8.80;;
9964;SDS011;5023;53.554;9.964;2023-02-20T12:00:43;7.20;;;4.97;;
9964;SDS011;5023;53.554;9.964;2023-02-20T12:05:48;9.32;;;4.93;;
9964;SDS011;5023;53.554;9.964;2023-02-20T12:10:51;8.70;;;4.80;;
9964;SDS011;5023;53.554;9.964;2023-02-20T12:15:57;9.75;;;5.55;;
9964;SDS011;5023;53.554;9.964;2023-02-20T12:21:14;7.35;;;4.70;;
9964;SDS011;5023;53.554;9.964;2023-02-20T12:26:33;9.75;;;4.70;;
9964;SDS011;5023;53.554;9.964;2023-02-20T12:31:47;6.27;;;4.47;;
9964;SDS011;5023;53.554;9.964;2023-02-20T12:37:08;6.23;;;4.50;;
9964;SDS011;5023;53.554;9.964;2023-02-20T12:42:20;10.57;;;4.38;;
9964;SDS011;5023;53.554;9.964;2023-02-20T12:47:33;8.32;;;4.40;;
9964;SDS011;5023;53.554;9.964;2023-02-20T12:52:57;7.30;;;3.88;;
9964;SDS011;5023;53.554;9.964;2023-02-20T12:58:11;6.25;;;4.30;;
9964;SDS011;5023;53.554;9.964;2023-02-20T13:03:22;7.32;;;3.60;;
9964;SDS011;5023;53.554;9.964;2023-02-20T13:08:33;7.78;;;3.83;;
9964;SDS011;5023;53.554;9.964;2023-02-20T13:13:44;6.28;;;3.70;;
9964;SDS011;5023;53.554;9.964;2023-02-20T13:18:58;8.75;;;4.38;;
9964;SDS011;5023;53.554;9.964;2023-02-20T13:24:27;6.65;;;3.90;;
9964;SDS011;5023;53.554;9.964;2023-02-20T13:29:31;7.78;;;4.05;;
9964;SDS011;5023;53.554;9.964;2023-02-20T13:34:36;6.70;;;3.80;;
9964;SDS011;5023;53.554;9.964;2023-02-20T13:39:42;5.50;;;3.60;;
9964;SDS011;5023;53.554;9.964;2023-02-20T13:44:44;9.63;;;4.13;;
9964;SDS011;5023;53.554;9.964;2023-02-20T13:49:53;10.20;;;4.47;;
9964;SDS011;5023;53.554;9.964;2023-02-20T13:54:58;7.28;;;4.45;;
9964;SDS011;5023;53.554;9.964;2023-02-20T14:00:07;7.30;;;4.35;;
9964;SDS011;5023;53.554;9.964;2023-02-20T14:05:23;10.93;;;4.75;;
9964;SDS011;5023;53.554;9.964;2023-02-20T14:10:29;8.77;;;5.25;;
9964;SDS011;5023;53.554;9.964;2023-02-20T14:15:43;8.60;;;4.83;;
9964;SDS011;5023;53.554;9.964;2023-02-20T14:20:49;9.32;;;4.63;;
9964;SDS011;5023;53.554;9.964;2023-02-20T14:26:01;7.13;;;4.45;;
9964;SDS011;5023;53.554;9.964;2023-02-20T14:31:06;14.38;;;7.72;;
9964;SDS011;5023;53.554;9.964;2023-02-20T14:36:30;6.72;;;4.72;;
9964;SDS011;5023;53.554;9.964;2023-02-20T14:41:51;7.78;;;4.30;;
9964;SDS011;5023;53.554;9.964;2023-02-20T14:46:55;7.28;;;4.28;;
9964;SDS011;5023;53.554;9.964;2023-02-20T14:52:06;6.97;;;4.32;;
9964;SDS011;5023;53.554;9.964;2023-02-20T14:57:18;12.45;;;5.25;;
9964;SDS011;5023;53.554;9.964;2023-02-20T15:02:21;8.98;;;4.68;;
9964;SDS011;5023;53.554;9.964;2023-02-20T15:07:27;11.68;;;4.75;;
9964;SDS011;5023;53.554;9.964;2023-02-20T15:12:32;8.65;;;4.88;;
9964;SDS011;5023;53.554;9.964;2023-02-20T15:17:38;7.35;;;4.20;;
9964;SDS011;5023;53.554;9.964;2023-02-20T15:22:42;8.93;;;4.40;;
9964;SDS011;5023;53.554;9.964;2023-02-20T15:28:05;8.73;;;4.28;;
9964;SDS011;5023;53.554;9.964;2023-02-20T15:33:10;8.40;;;4.63;;
9964;SDS011;5023;53.554;9.964;2023-02-20T15:38:12;7.35;;;4.45;;
9964;SDS011;5023;53.554;9.964;2023-02-20T15:43:16;8.45;;;4.53;;
9964;SDS011;5023;53.554;9.964;2023-02-20T15:48:18;10.33;;;4.30;;
9964;SDS011;5023;53.554;9.964;2023-02-20T15:53:21;11.90;;;5.27;;
9964;SDS011;5023;53.554;9.964;2023-02-20T15:58:27;7.30;;;5.10;;
9964;SDS011;5023;53.554;9.964;2023-02-20T16:03:31;9.27;;;4.72;;
9964;SDS011;5023;53.554;9.964;2023-02-20T16:08:34;7.03;;;5.60;;
9964;SDS011;5023;53.554;9.964;2023-02-20T16:13:38;11.95;;;5.25;;
9964;SDS011;5023;53.554;9.964;2023-02-20T16:18:42;10.00;;;4.97;;
9964;SDS011;5023;53.554;9.964;2023-02-20T16:23:47;8.87;;;4.83;;
9964;SDS011;5023;53.554;9.964;2023-02-20T16:28:51;9.03;;;5.30;;
9964;SDS011;5023;53.554;9.964;2023-02-20T16:33:56;7.40;;;5.20;;
9964;SDS011;5023;53.554;9.964;2023-02-20T16:38:58;9.60;;;5.13;;
9964;SDS011;5023;53.554;9.964;2023-02-20T16:44:01;8.33;;;4.97;;
9964;SDS011;5023;53.554;9.964;2023-02-20T16:49:07;6.23;;;4.60;;
9964;SDS011;5023;53.554;9.964;2023-02-20T16:54:11;7.70;;;3.90;;
9964;SDS011;5023;53.554;9.964;2023-02-20T16:59:15;6.77;;;4.17;;
9964;SDS011;5023;53.554;9.964;2023-02-20T17:04:17;7.47;;;3.93;;
9964;SDS011;5023;53.554;9.964;2023-02-20T17:09:20;8.23;;;4.17;;
9964;SDS011;5023;53.554;9.964;2023-02-20T17:14:31;7.63;;;4.70;;
9964;SDS011;5023;53.554;9.964;2023-02-20T17:19:39;5.77;;;4.43;;
9964;SDS011;5023;53.554;9.964;2023-02-20T17:24:42;8.37;;;4.67;;
9964;SDS011;5023;53.554;9.964;2023-02-20T17:29:46;4.93;;;4.07;;
9964;SDS011;5023;53.554;9.964;2023-02-20T17:34:49;5.00;;;4.60;;
9964;SDS011;5023;53.554;9.964;2023-02-20T17:39:51;6.63;;;4.63;;
9964;SDS011;5023;53.554;9.964;2023-02-20T17:44:55;5.90;;;4.93;;
9964;SDS011;5023;53.554;9.964;2023-02-20T17:49:57;4.70;;;4.20;;
9964;SDS011;5023;53.554;9.964;2023-02-20T17:54:59;7.70;;;5.07;;
9964;SDS011;5023;53.554;9.964;2023-02-20T18:00:05;6.73;;;4.70;;
9964;SDS011;5023;53.554;9.964;2023-02-20T18:05:09;6.53;;;4.97;;
9964;SDS011;5023;53.554;9.964;2023-02-20T18:10:12;5.80;;;4.40;;
9964;SDS011;5023;53.554;9.964;2023-02-20T18:15:15;5.40;;;4.73;;
9964;SDS011;5023;53.554;9.964;2023-02-20T18:20:19;6.13;;;4.43;;
9964;SDS011;5023;53.554;9.964;2023-02-20T18:25:22;5.87;;;4.77;;
9964;SDS011;5023;53.554;9.964;2023-02-20T18:30:26;6.83;;;5.33;;
9964;SDS011;5023;53.554;9.964;2023-02-20T18:35:28;10.60;;;5.73;;
9964;SDS011;5023;53.554;9.964;2023-02-20T18:40:30;8.13;;;5.80;;
9964;SDS011;5023;53.554;9.964;2023-02-20T18:45:34;8.47;;;6.03;;
9964;SDS011;5023;53.554;9.964;2023-02-20T18:50:37;7.20;;;5.07;;
9964;SDS011;5023;53.554;9.964;2023-02-20T18:55:40;8.97;;;4.90;;
9964;SDS011;5023;53.554;9.964;2023-02-20T19:00:44;8.53;;;4.67;;
9964;SDS011;5023;53.554;9.964;2023-02-20T19:05:46;8.77;;;4.80;;
9964;SDS011;5023;53.554;9.964;2023-02-20T19:10:49;10.57;;;6.47;;
9964;SDS011;5023;53.554;9.964;2023-02-20T19:15:53;8.93;;;5.70;;
9964;SDS011;5023;53.554;9.964;2023-02-20T19:20:55;12.67;;;7.33;;
9964;SDS011;5023;53.554;9.964;2023-02-20T19:25:57;7.10;;;5.07;;
9964;SDS011;5023;53.554;9.964;2023-02-20T19:31:01;7.00;;;5.30;;
9964;SDS011;5023;53.554;9.964;2023-02-20T19:36:04;7.47;;;4.83;;
9964;SDS011;5023;53.554;9.964;2023-02-20T19:41:07;8.47;;;5.10;;
9964;SDS011;5023;53.554;9.964;2023-02-20T19:46:14;6.97;;;5.00;;
9964;SDS011;5023;53.554;9.964;2023-02-20T19:51:18;6.93;;;4.13;;
9964;SDS011;5023;53.554;9.964;2023-02-20T19:56:20;9.43;;;4.43;;
9964;SDS011;5023;53.554;9.964;2023-02-20T20:01:24;6.80;;;4.30;;
9964;SDS011;5023;53.554;9.964;2023-02-20T20:06:26;5.93;;;4.07;;
9964;SDS011;5023;53.554;9.964;2023-02-20T20:11:29;5.17;;;4.63;;
9964;SDS011;5023;53.554;9.964;2023-02-20T20:16:43;5.03;;;4.27;;
9964;SDS011;5023;53.554;9.964;2023-02-20T20:22:11;4.97;;;3.90;;
9964;SDS011;5023;53.554;9.964;2023-02-20T20:27:16;4.27;;;3.87;;
9964;SDS011;5023;53.554;9.964;2023-02-20T20:32:34;4.73;;;4.20;;
9964;SDS011;5023;53.554;9.964;2023-02-20T20:38:14;5.22;;;4.45;;
9964;SDS011;5023;53.554;9.964;2023-02-20T20:43:17;4.80;;;4.30;;
9964;SDS011;5023;53.554;9.964;2023-02-20T20:48:20;4.40;;;3.93;;
9964;SDS011;5023;53.554;9.964;2023-02-20T20:53:23;6.17;;;3.90;;
9964;SDS011;5023;53.554;9.964;2023-02-20T20:58:26;5.17;;;4.67;;
9964;SDS011;5023;53.554;9.964;2023-02-20T21:03:54;6.43;;;3.63;;
9964;SDS011;5023;53.554;9.964;2023-02-20T21:08:57;4.17;;;3.20;;
9964;SDS011;5023;53.554;9.964;2023-02-20T21:14:05;4.23;;;3.07;;
9964;SDS011;5023;53.554;9.964;2023-02-20T21:19:10;4.57;;;3.30;;
9964;SDS011;5023;53.554;9.964;2023-02-20T21:24:24;4.63;;;3.70;;
9964;SDS011;5023;53.554;9.964;2023-02-20T21:29:29;4.45;;;3.33;;
9964;SDS011;5023;53.554;9.964;2023-02-20T21:34:34;4.33;;;3.30;;
9964;SDS011;5023;53.554;9.964;2023-02-20T21:39:36;5.33;;;3.60;;
9964;SDS011;5023;53.554;9.964;2023-02-20T21:44:43;4.87;;;3.70;;
9964;SDS011;5023;53.554;9.964;2023-02-20T21:49:50;4.70;;;3.63;;
9964;SDS011;5023;53.554;9.964;2023-02-20T21:54:54;4.10;;;3.70;;
9964;SDS011;5023;53.554;9.964;2023-02-20T21:59:56;4.37;;;4.00;;
9964;SDS011;5023;53.554;9.964;2023-02-20T22:04:59;4.83;;;3.67;;
9964;SDS011;5023;53.554;9.964;2023-02-20T22:10:02;4.13;;;3.30;;
9964;SDS011;5023;53.554;9.964;2023-02-20T22:15:22;3.27;;;2.97;;
9964;SDS011;5023;53.554;9.964;2023-02-20T22:20:48;5.13;;;2.63;;
9964;SDS011;5023;53.554;9.964;2023-02-20T22:26:09;5.18;;;2.63;;
9964;SDS011;5023;53.554;9.964;2023-02-20T22:31:32;4.10;;;2.43;;
9964;SDS011;5023;53.554;9.964;2023-02-20T22:36:53;6.43;;;2.70;;
9964;SDS011;5023;53.554;9.964;2023-02-20T22:42:14;4.57;;;2.75;;
9964;SDS011;5023;53.554;9.964;2023-02-20T22:47:34;5.70;;;2.83;;
9964;SDS011;5023;53.554;9.964;2023-02-20T22:52:57;3.30;;;2.23;;
9964;SDS011;5023;53.554;9.964;2023-02-20T22:58:17;5.17;;;2.70;;
9964;SDS011;5023;53.554;9.964;2023-02-20T23:03:38;4.10;;;2.40;;
9964;SDS011;5023;53.554;9.964;2023-02-20T23:09:02;3.27;;;2.40;;
9964;SDS011;5023;53.554;9.964;2023-02-20T23:14:23;4.23;;;2.60;;
9964;SDS011;5023;53.554;9.964;2023-02-20T23:19:46;4.80;;;2.77;;
9964;SDS011;5023;53.554;9.964;2023-02-20T23:25:07;4.40;;;3.13;;
9964;SDS011;5023;53.554;9.964;2023-02-20T23:30:27;5.82;;;4.03;;
9964;SDS011;5023;53.554;9.964;2023-02-20T23:35:57;4.17;;;2.60;;
9964;SDS011;5023;53.554;9.964;2023-02-20T23:41:19;3.10;;;2.80;;
9964;SDS011;5023;53.554;9.964;2023-02-20T23:46:42;2.17;;;1.97;;
9964;SDS011;5023;53.554;9.964;2023-02-20T23:52:02;3.70;;;2.63;;
9964;SDS011;5023;53.554;9.964;2023-02-20T23:57:23;3.60;;;2.10;;
